Aeroporto :
LOGIN :

Iscrizione | Disclaimer

   EN    FR    IT 

 










Sommario :    VFR   VFR Marginale   IFR   IFR Intensivo   IFR Molto Intensivo
Visibilità : 
Base nubi : 
>= 8 km
>= 3000ft
5 / 8 km
1000 / 3000 ft
1500m / 5 km
500 / 1000 ft
800 / 1500m
200 / 500 ft
< 800m
< 200 ft
Simboli :   Temporali  Nebbia  Neve Forte  Precipitazioni Forti  Vento > 20 kt
SIGMETs :   Varie  Temporali  Ghiacco  Turbolenza  Onda orograficha  Ceneri Vulcaniche






- Altitudine del aeroporto : 412 ft
- Codice IATA : ORE


LFOJ - Orleans

ULTIMO METAR :
  • 182100Z AUTO 22015KT CAVOK 07/05 Q1026

METARs OBSOLETI :
  • 182030Z AUTO 22015KT CAVOK 07/05 Q1026 BECMG 4500 RA BKN012 BKN025TCU
  • 182000Z AUTO 22014KT CAVOK 07/05 Q1026 BECMG 4500 RA BKN012 BKN025TCU
  • 181930Z AUTO 22015KT CAVOK 08/05 Q1026 BECMG 4500 RA BKN012 BKN025TCU
  • 181900Z AUTO 22013KT 9999 FEW046 SCT120 OVC140 08/05 Q1026 BECMG 4500 RA BKN012 BKN025TCU
  • 181830Z AUTO 22011KT 9999 FEW042 BKN140 OVC160 08/05 Q1026 BECMG 4500 RA BKN012 BKN025TCU

TAF TAF LFOJ
Valido dal 18 a 15 ore il 19 a 15 ore UTC


181400Z 1815/1915 22016KT 9999 SCT030
PROB30
TEMPO 1816/1820 4000 SHRA BKN035TCU
BECMG 1820/1822 4500 RA BKN012 BKN025TCU
PROB40
TEMPO 1900/1902 30018G30KT 2000 TSRA BKN005 BKN020CB
BECMG 1903/1905 9999 NSW SCT035



MetMap, La meteo Aeronautica in un colpo d'occhio ! - Copyright ORBIFLY Dicembre 2007 - Disclaimer

ORBIFLY MET'MAP TEAM :

Programmazione e sviluppo : Alexandra Zaïnal
Concezione : Baudouin d'Aumeries
Aiuto per la programmazione : Marc-Olivier Méhu
Supporto tecnico e logistico : Manuel Goepfert
Aiuto per la traduzione : Arnaldo La Scala

Contatto : metmap@orbifly.com




FONTI E CREDITI :

   NOAA